sensor_id;sensor_type;location;lat;lon;timestamp;pressure;altitude;pressure_sealevel;temperature;humidity
71770;BME280;66386;52.122;5.420;2023-10-19T00:01:16;99371.94;;;9.42;100.00
71770;BME280;66386;52.122;5.420;2023-10-19T00:03:44;99366.72;;;9.43;100.00
71770;BME280;66386;52.122;5.420;2023-10-19T00:06:11;99348.69;;;9.45;100.00
71770;BME280;66386;52.122;5.420;2023-10-19T00:08:38;99355.41;;;9.48;100.00
71770;BME280;66386;52.122;5.420;2023-10-19T00:11:08;99353.56;;;9.50;100.00
71770;BME280;66386;52.122;5.420;2023-10-19T00:13:36;99352.56;;;9.52;100.00
71770;BME280;66386;52.122;5.420;2023-10-19T00:16:06;99350.72;;;9.54;100.00
71770;BME280;66386;52.122;5.420;2023-10-19T00:18:49;99346.34;;;9.56;100.00
71770;BME280;66386;52.122;5.420;2023-10-19T00:21:16;99333.44;;;9.58;100.00
71770;BME280;66386;52.122;5.420;2023-10-19T00:23:56;99332.41;;;9.60;100.00
71770;BME280;66386;52.122;5.420;2023-10-19T00:26:26;99337.47;;;9.62;100.00
71770;BME280;66386;52.122;5.420;2023-10-19T00:28:56;99338.22;;;9.64;100.00
71770;BME280;66386;52.122;5.420;2023-10-19T00:31:26;99334.75;;;9.65;100.00
71770;BME280;66386;52.122;5.420;2023-10-19T00:34:00;99337.13;;;9.68;100.00
71770;BME280;66386;52.122;5.420;2023-10-19T00:36:27;99340.41;;;9.70;100.00
71770;BME280;66386;52.122;5.420;2023-10-19T00:38:57;99342.00;;;9.73;100.00
71770;BME280;66386;52.122;5.420;2023-10-19T00:41:25;99339.41;;;9.73;100.00
71770;BME280;66386;52.122;5.420;2023-10-19T00:43:59;99337.59;;;9.75;100.00
71770;BME280;66386;52.122;5.420;2023-10-19T00:46:30;99330.66;;;9.77;100.00
71770;BME280;66386;52.122;5.420;2023-10-19T00:49:05;99328.88;;;9.77;100.00
71770;BME280;66386;52.122;5.420;2023-10-19T00:51:37;99332.09;;;9.81;100.00
71770;BME280;66386;52.122;5.420;2023-10-19T00:54:15;99331.94;;;9.84;100.00
71770;BME280;66386;52.122;5.420;2023-10-19T00:56:48;99327.63;;;9.85;100.00
71770;BME280;66386;52.122;5.420;2023-10-19T00:59:18;99324.88;;;9.88;100.00
71770;BME280;66386;52.122;5.420;2023-10-19T01:01:53;99318.84;;;9.89;100.00
71770;BME280;66386;52.122;5.420;2023-10-19T01:04:38;99311.75;;;9.92;100.00
71770;BME280;66386;52.122;5.420;2023-10-19T01:07:09;99314.25;;;9.94;100.00
71770;BME280;66386;52.122;5.420;2023-10-19T01:09:47;99313.97;;;9.99;100.00
71770;BME280;66386;52.122;5.420;2023-10-19T01:12:14;99318.00;;;10.03;100.00
71770;BME280;66386;52.122;5.420;2023-10-19T01:17:36;99318.56;;;10.08;100.00
71770;BME280;66386;52.122;5.420;2023-10-19T01:20:08;99297.94;;;10.09;100.00
71770;BME280;66386;52.122;5.420;2023-10-19T01:25:20;99300.88;;;10.18;100.00
71770;BME280;66386;52.122;5.420;2023-10-19T01:28:10;99305.00;;;10.20;100.00
71770;BME280;66386;52.122;5.420;2023-10-19T01:30:40;99304.00;;;10.23;100.00
71770;BME280;66386;52.122;5.420;2023-10-19T01:33:06;99301.25;;;10.26;100.00
71770;BME280;66386;52.122;5.420;2023-10-19T01:35:40;99300.22;;;10.28;100.00
71770;BME280;66386;52.122;5.420;2023-10-19T01:38:25;99293.34;;;10.29;100.00
71770;BME280;66386;52.122;5.420;2023-10-19T01:40:51;99293.16;;;10.32;100.00
71770;BME280;66386;52.122;5.420;2023-10-19T01:43:21;99292.25;;;10.33;100.00
71770;BME280;66386;52.122;5.420;2023-10-19T01:45:48;99290.44;;;10.35;100.00
71770;BME280;66386;52.122;5.420;2023-10-19T01:48:14;99283.47;;;10.37;100.00
71770;BME280;66386;52.122;5.420;2023-10-19T01:50:42;99287.59;;;10.40;100.00
71770;BME280;66386;52.122;5.420;2023-10-19T01:53:09;99288.22;;;10.43;100.00
71770;BME280;66386;52.122;5.420;2023-10-19T01:55:43;99268.25;;;10.48;100.00
71770;BME280;66386;52.122;5.420;2023-10-19T01:58:10;99283.47;;;10.52;100.00
71770;BME280;66386;52.122;5.420;2023-10-19T02:00:37;99282.97;;;10.59;100.00
71770;BME280;66386;52.122;5.420;2023-10-19T02:03:07;99286.34;;;10.60;100.00
71770;BME280;66386;52.122;5.420;2023-10-19T02:05:34;99277.63;;;10.62;100.00
71770;BME280;66386;52.122;5.420;2023-10-19T02:08:09;99273.06;;;10.68;100.00
71770;BME280;66386;52.122;5.420;2023-10-19T02:10:35;99278.09;;;10.69;100.00
71770;BME280;66386;52.122;5.420;2023-10-19T02:13:03;99270.19;;;10.72;100.00
71770;BME280;66386;52.122;5.420;2023-10-19T02:15:33;99265.56;;;10.77;100.00
71770;BME280;66386;52.122;5.420;2023-10-19T02:18:04;99268.78;;;10.81;100.00
71770;BME280;66386;52.122;5.420;2023-10-19T02:20:31;99268.59;;;10.84;100.00
71770;BME280;66386;52.122;5.420;2023-10-19T02:23:09;99273.53;;;10.87;100.00
71770;BME280;66386;52.122;5.420;2023-10-19T02:25:36;99272.31;;;10.93;100.00
71770;BME280;66386;52.122;5.420;2023-10-19T02:28:04;99263.59;;;10.95;100.00
71770;BME280;66386;52.122;5.420;2023-10-19T02:30:33;99275.41;;;10.98;100.00
71770;BME280;66386;52.122;5.420;2023-10-19T02:33:03;99272.66;;;11.01;100.00
71770;BME280;66386;52.122;5.420;2023-10-19T02:35:32;99268.25;;;11.03;100.00
71770;BME280;66386;52.122;5.420;2023-10-19T02:38:01;99272.47;;;11.04;100.00
71770;BME280;66386;52.122;5.420;2023-10-19T02:40:27;99270.41;;;11.09;100.00
71770;BME280;66386;52.122;5.420;2023-10-19T02:43:00;99253.78;;;11.15;100.00
71770;BME280;66386;52.122;5.420;2023-10-19T02:45:29;99270.34;;;11.24;100.00
71770;BME280;66386;52.122;5.420;2023-10-19T02:47:58;99260.97;;;11.23;100.00
71770;BME280;66386;52.122;5.420;2023-10-19T02:50:25;99254.91;;;11.24;100.00
71770;BME280;66386;52.122;5.420;2023-10-19T02:52:52;99258.31;;;11.24;100.00
71770;BME280;66386;52.122;5.420;2023-10-19T02:55:22;99254.91;;;11.24;100.00
71770;BME280;66386;52.122;5.420;2023-10-19T02:57:51;99258.03;;;11.29;100.00
71770;BME280;66386;52.122;5.420;2023-10-19T03:00:17;99263.06;;;11.30;100.00
71770;BME280;66386;52.122;5.420;2023-10-19T03:02:48;99263.69;;;11.34;100.00
71770;BME280;66386;52.122;5.420;2023-10-19T03:05:15;99253.94;;;11.39;100.00
71770;BME280;66386;52.122;5.420;2023-10-19T03:07:42;99258.66;;;11.45;100.00
71770;BME280;66386;52.122;5.420;2023-10-19T03:10:10;99259.47;;;11.46;100.00
71770;BME280;66386;52.122;5.420;2023-10-19T03:12:50;99254.34;;;11.46;100.00
71770;BME280;66386;52.122;5.420;2023-10-19T03:15:17;99257.75;;;11.46;100.00
71770;BME280;66386;52.122;5.420;2023-10-19T03:17:47;99257.66;;;11.48;100.00
71770;BME280;66386;52.122;5.420;2023-10-19T03:20:15;99252.28;;;11.51;100.00
71770;BME280;66386;52.122;5.420;2023-10-19T03:22:44;99245.28;;;11.53;100.00
71770;BME280;66386;52.122;5.420;2023-10-19T03:25:13;99245.91;;;11.57;100.00
71770;BME280;66386;52.122;5.420;2023-10-19T03:27:58;99240.66;;;11.58;100.00
71770;BME280;66386;52.122;5.420;2023-10-19T03:30:32;99241.38;;;11.60;100.00
71770;BME280;66386;52.122;5.420;2023-10-19T03:33:05;99237.03;;;11.61;100.00
71770;BME280;66386;52.122;5.420;2023-10-19T03:35:38;99234.91;;;11.67;100.00
71770;BME280;66386;52.122;5.420;2023-10-19T03:38:08;99240.16;;;11.66;100.00
71770;BME280;66386;52.122;5.420;2023-10-19T03:40:45;99230.78;;;11.65;100.00
71770;BME280;66386;52.122;5.420;2023-10-19T03:43:18;99226.38;;;11.67;100.00
71770;BME280;66386;52.122;5.420;2023-10-19T03:45:48;99228.09;;;11.66;100.00
71770;BME280;66386;52.122;5.420;2023-10-19T03:48:19;99228.84;;;11.68;100.00
71770;BME280;66386;52.122;5.420;2023-10-19T03:51:01;99217.59;;;11.69;100.00
71770;BME280;66386;52.122;5.420;2023-10-19T03:53:29;99228.63;;;11.72;100.00
71770;BME280;66386;52.122;5.420;2023-10-19T03:55:57;99217.41;;;11.73;100.00
71770;BME280;66386;52.122;5.420;2023-10-19T03:58:23;99211.94;;;11.77;100.00
71770;BME280;66386;52.122;5.420;2023-10-19T04:00:50;99210.81;;;11.81;100.00
71770;BME280;66386;52.122;5.420;2023-10-19T04:03:17;99205.84;;;11.78;100.00
71770;BME280;66386;52.122;5.420;2023-10-19T04:05:44;99212.66;;;11.79;100.00
71770;BME280;66386;52.122;5.420;2023-10-19T04:08:13;99213.50;;;11.80;100.00
71770;BME280;66386;52.122;5.420;2023-10-19T04:10:47;99209.97;;;11.81;100.00
71770;BME280;66386;52.122;5.420;2023-10-19T04:13:37;99201.34;;;11.82;100.00
71770;BME280;66386;52.122;5.420;2023-10-19T04:16:04;99206.38;;;11.83;100.00
71770;BME280;66386;52.122;5.420;2023-10-19T04:18:36;99207.81;;;11.87;100.00
71770;BME280;66386;52.122;5.420;2023-10-19T04:21:04;99199.34;;;11.85;100.00
71770;BME280;66386;52.122;5.420;2023-10-19T04:23:31;99193.28;;;11.86;100.00
71770;BME280;66386;52.122;5.420;2023-10-19T04:26:01;99189.06;;;11.85;100.00
71770;BME280;66386;52.122;5.420;2023-10-19T04:28:33;99186.91;;;11.79;100.00
71770;BME280;66386;52.122;5.420;2023-10-19T04:31:12;99195.06;;;11.73;100.00
71770;BME280;66386;52.122;5.420;2023-10-19T04:33:41;99196.41;;;11.66;100.00
71770;BME280;66386;52.122;5.420;2023-10-19T04:36:09;99204.34;;;11.63;100.00
71770;BME280;66386;52.122;5.420;2023-10-19T04:38:38;99203.09;;;11.56;100.00
71770;BME280;66386;52.122;5.420;2023-10-19T04:41:08;99213.69;;;11.51;100.00
71770;BME280;66386;52.122;5.420;2023-10-19T04:43:39;99214.81;;;11.47;100.00
71770;BME280;66386;52.122;5.420;2023-10-19T04:46:10;99214.28;;;11.42;100.00
71770;BME280;66386;52.122;5.420;2023-10-19T04:48:41;99211.22;;;11.37;100.00
71770;BME280;66386;52.122;5.420;2023-10-19T04:51:09;99217.50;;;11.32;100.00
71770;BME280;66386;52.122;5.420;2023-10-19T04:53:36;99208.31;;;11.28;100.00
71770;BME280;66386;52.122;5.420;2023-10-19T04:56:04;99208.53;;;11.25;100.00
71770;BME280;66386;52.122;5.420;2023-10-19T04:58:31;99216.34;;;11.24;100.00
71770;BME280;66386;52.122;5.420;2023-10-19T05:00:58;99223.97;;;11.25;100.00
71770;BME280;66386;52.122;5.420;2023-10-19T05:03:25;99214.31;;;11.29;100.00
71770;BME280;66386;52.122;5.420;2023-10-19T05:05:52;99220.88;;;11.33;100.00
71770;BME280;66386;52.122;5.420;2023-10-19T05:08:18;99219.16;;;11.33;100.00
71770;BME280;66386;52.122;5.420;2023-10-19T05:10:46;99224.19;;;11.35;100.00
71770;BME280;66386;52.122;5.420;2023-10-19T05:13:12;99226.56;;;11.38;100.00
71770;BME280;66386;52.122;5.420;2023-10-19T05:15:39;99223.06;;;11.39;100.00
71770;BME280;66386;52.122;5.420;2023-10-19T05:18:05;99219.34;;;11.43;100.00
71770;BME280;66386;52.122;5.420;2023-10-19T05:20:32;99224.91;;;11.50;100.00
71770;BME280;66386;52.122;5.420;2023-10-19T05:22:59;99227.91;;;11.57;100.00
71770;BME280;66386;52.122;5.420;2023-10-19T05:25:26;99238.00;;;11.60;100.00
71770;BME280;66386;52.122;5.420;2023-10-19T05:27:53;99240.56;;;11.60;100.00
71770;BME280;66386;52.122;5.420;2023-10-19T05:30:19;99235.91;;;11.65;100.00
71770;BME280;66386;52.122;5.420;2023-10-19T05:32:48;99240.75;;;11.69;100.00
71770;BME280;66386;52.122;5.420;2023-10-19T05:35:16;99239.03;;;11.70;100.00
71770;BME280;66386;52.122;5.420;2023-10-19T05:37:49;99244.88;;;11.72;100.00
71770;BME280;66386;52.122;5.420;2023-10-19T05:40:16;99247.25;;;11.75;100.00
71770;BME280;66386;52.122;5.420;2023-10-19T05:42:44;99238.59;;;11.76;100.00
71770;BME280;66386;52.122;5.420;2023-10-19T05:45:12;99244.56;;;11.77;100.00
71770;BME280;66386;52.122;5.420;2023-10-19T05:47:44;99254.69;;;11.80;100.00
71770;BME280;66386;52.122;5.420;2023-10-19T05:50:11;99257.97;;;11.82;100.00
71770;BME280;66386;52.122;5.420;2023-10-19T05:52:42;99249.44;;;11.81;100.00
71770;BME280;66386;52.122;5.420;2023-10-19T05:55:11;99264.66;;;11.84;100.00
71770;BME280;66386;52.122;5.420;2023-10-19T05:57:39;99255.19;;;11.85;100.00
71770;BME280;66386;52.122;5.420;2023-10-19T06:00:10;99254.25;;;11.86;100.00
71770;BME280;66386;52.122;5.420;2023-10-19T06:02:45;99263.53;;;11.88;100.00
71770;BME280;66386;52.122;5.420;2023-10-19T06:05:13;99255.69;;;11.90;100.00
71770;BME280;66386;52.122;5.420;2023-10-19T06:07:44;99249.59;;;11.91;100.00
71770;BME280;66386;52.122;5.420;2023-10-19T06:10:15;99261.47;;;11.94;100.00
71770;BME280;66386;52.122;5.420;2023-10-19T06:12:48;99261.16;;;11.98;100.00
71770;BME280;66386;52.122;5.420;2023-10-19T06:15:17;99262.72;;;12.01;100.00
71770;BME280;66386;52.122;5.420;2023-10-19T06:17:44;99257.56;;;12.01;100.00
71770;BME280;66386;52.122;5.420;2023-10-19T06:20:12;99254.06;;;12.02;100.00
71770;BME280;66386;52.122;5.420;2023-10-19T06:22:53;99263.31;;;12.04;100.00
71770;BME280;66386;52.122;5.420;2023-10-19T06:25:23;99257.97;;;12.08;100.00
71770;BME280;66386;52.122;5.420;2023-10-19T06:27:51;99255.41;;;12.08;100.00
71770;BME280;66386;52.122;5.420;2023-10-19T06:30:19;99252.09;;;12.05;100.00
71770;BME280;66386;52.122;5.420;2023-10-19T06:32:54;99263.94;;;12.08;100.00
71770;BME280;66386;52.122;5.420;2023-10-19T06:35:22;99265.59;;;12.09;100.00
71770;BME280;66386;52.122;5.420;2023-10-19T06:37:49;99262.06;;;12.10;100.00
71770;BME280;66386;52.122;5.420;2023-10-19T06:40:16;99261.06;;;12.13;100.00
71770;BME280;66386;52.122;5.420;2023-10-19T06:42:44;99265.19;;;12.15;100.00
71770;BME280;66386;52.122;5.420;2023-10-19T06:45:14;99268.44;;;12.17;100.00
71770;BME280;66386;52.122;5.420;2023-10-19T06:47:45;99265.66;;;12.20;100.00
71770;BME280;66386;52.122;5.420;2023-10-19T06:50:14;99273.50;;;12.19;100.00
71770;BME280;66386;52.122;5.420;2023-10-19T06:52:44;99279.50;;;12.19;100.00
71770;BME280;66386;52.122;5.420;2023-10-19T06:55:13;99278.53;;;12.20;100.00
71770;BME280;66386;52.122;5.420;2023-10-19T06:57:43;99287.31;;;12.18;100.00
71770;BME280;66386;52.122;5.420;2023-10-19T07:00:14;99291.53;;;12.19;100.00
71770;BME280;66386;52.122;5.420;2023-10-19T07:02:43;99294.00;;;12.20;100.00
71770;BME280;66386;52.122;5.420;2023-10-19T07:05:10;99300.69;;;12.23;100.00
71770;BME280;66386;52.122;5.420;2023-10-19T07:07:40;99294.72;;;12.22;100.00
71770;BME280;66386;52.122;5.420;2023-10-19T07:10:08;99303.38;;;12.21;100.00
71770;BME280;66386;52.122;5.420;2023-10-19T07:12:36;99306.59;;;12.25;100.00
71770;BME280;66386;52.122;5.420;2023-10-19T07:15:06;99303.69;;;12.30;100.00
71770;BME280;66386;52.122;5.420;2023-10-19T07:17:43;99306.97;;;12.32;100.00
71770;BME280;66386;52.122;5.420;2023-10-19T07:20:11;99305.22;;;12.32;100.00
71770;BME280;66386;52.122;5.420;2023-10-19T07:22:56;99311.09;;;12.34;100.00
71770;BME280;66386;52.122;5.420;2023-10-19T07:25:23;99312.66;;;12.37;100.00
71770;BME280;66386;52.122;5.420;2023-10-19T07:27:52;99310.66;;;12.40;100.00
71770;BME280;66386;52.122;5.420;2023-10-19T07:30:20;99315.59;;;12.44;100.00
71770;BME280;66386;52.122;5.420;2023-10-19T07:32:49;99309.53;;;12.45;100.00
71770;BME280;66386;52.122;5.420;2023-10-19T07:35:21;99312.00;;;12.46;100.00
71770;BME280;66386;52.122;5.420;2023-10-19T07:37:49;99311.06;;;12.47;100.00
71770;BME280;66386;52.122;5.420;2023-10-19T07:40:16;99311.56;;;12.52;100.00
71770;BME280;66386;52.122;5.420;2023-10-19T07:42:45;99308.78;;;12.55;100.00
71770;BME280;66386;52.122;5.420;2023-10-19T07:45:12;99317.03;;;12.61;100.00
71770;BME280;66386;52.122;5.420;2023-10-19T07:47:39;99313.53;;;12.62;100.00
71770;BME280;66386;52.122;5.420;2023-10-19T07:50:12;99311.66;;;12.64;100.00
71770;BME280;66386;52.122;5.420;2023-10-19T07:52:46;99312.16;;;12.69;100.00
71770;BME280;66386;52.122;5.420;2023-10-19T07:55:17;99317.00;;;12.73;100.00
71770;BME280;66386;52.122;5.420;2023-10-19T07:57:44;99316.88;;;12.75;100.00
71770;BME280;66386;52.122;5.420;2023-10-19T08:00:11;99320.16;;;12.77;100.00
71770;BME280;66386;52.122;5.420;2023-10-19T08:02:40;99311.63;;;12.77;100.00
71770;BME280;66386;52.122;5.420;2023-10-19T08:05:16;99320.16;;;12.77;100.00
71770;BME280;66386;52.122;5.420;2023-10-19T08:07:46;99322.63;;;12.79;100.00
71770;BME280;66386;52.122;5.420;2023-10-19T08:10:17;99319.03;;;12.81;100.00
71770;BME280;66386;52.122;5.420;2023-10-19T08:12:45;99314.47;;;12.85;100.00
71770;BME280;66386;52.122;5.420;2023-10-19T08:15:14;99316.00;;;12.87;100.00
71770;BME280;66386;52.122;5.420;2023-10-19T08:17:44;99307.34;;;12.88;100.00
71770;BME280;66386;52.122;5.420;2023-10-19T08:20:12;99311.34;;;12.92;100.00
71770;BME280;66386;52.122;5.420;2023-10-19T08:22:59;99309.47;;;12.95;100.00
71770;BME280;66386;52.122;5.420;2023-10-19T08:25:28;99307.53;;;12.98;100.00
71770;BME280;66386;52.122;5.420;2023-10-19T08:28:13;99304.72;;;13.01;100.00
71770;BME280;66386;52.122;5.420;2023-10-19T08:30:41;99306.16;;;13.05;100.00
71770;BME280;66386;52.122;5.420;2023-10-19T08:33:08;99305.91;;;13.08;100.00
71770;BME280;66386;52.122;5.420;2023-10-19T08:35:34;99307.31;;;13.13;100.00
71770;BME280;66386;52.122;5.420;2023-10-19T08:38:02;99306.28;;;13.15;100.00
71770;BME280;66386;52.122;5.420;2023-10-19T08:40:36;99306.06;;;13.18;100.00
71770;BME280;66386;52.122;5.420;2023-10-19T08:43:05;99299.75;;;13.22;100.00
71770;BME280;66386;52.122;5.420;2023-10-19T08:45:34;99306.44;;;13.25;100.00
71770;BME280;66386;52.122;5.420;2023-10-19T08:48:01;99306.00;;;13.31;100.00
71770;BME280;66386;52.122;5.420;2023-10-19T08:50:31;99302.28;;;13.35;100.00
71770;BME280;66386;52.122;5.420;2023-10-19T08:53:00;99298.69;;;13.38;100.00
71770;BME280;66386;52.122;5.420;2023-10-19T08:55:29;99299.16;;;13.43;100.00
71770;BME280;66386;52.122;5.420;2023-10-19T08:58:14;99306.53;;;13.48;100.00
71770;BME280;66386;52.122;5.420;2023-10-19T09:00:47;99290.75;;;13.52;100.00
71770;BME280;66386;52.122;5.420;2023-10-19T09:03:15;99298.94;;;13.57;100.00
71770;BME280;66386;52.122;5.420;2023-10-19T09:05:44;99301.31;;;13.60;100.00
71770;BME280;66386;52.122;5.420;2023-10-19T09:08:14;99298.38;;;13.65;100.00
71770;BME280;66386;52.122;5.420;2023-10-19T09:10:42;99292.78;;;13.71;100.00
71770;BME280;66386;52.122;5.420;2023-10-19T09:13:12;99296.44;;;13.80;100.00
71770;BME280;66386;52.122;5.420;2023-10-19T09:15:41;99296.22;;;13.94;100.00
71770;BME280;66386;52.122;5.420;2023-10-19T09:18:15;99291.16;;;14.16;100.00
71770;BME280;66386;52.122;5.420;2023-10-19T09:20:50;99294.19;;;14.32;100.00
71770;BME280;66386;52.122;5.420;2023-10-19T09:23:24;99290.06;;;14.41;100.00
71770;BME280;66386;52.122;5.420;2023-10-19T09:25:57;99284.53;;;14.45;100.00
71770;BME280;66386;52.122;5.420;2023-10-19T09:28:24;99290.88;;;14.53;100.00
71770;BME280;66386;52.122;5.420;2023-10-19T09:30:52;99290.53;;;14.57;100.00
71770;BME280;66386;52.122;5.420;2023-10-19T09:33:19;99295.13;;;14.65;100.00
71770;BME280;66386;52.122;5.420;2023-10-19T09:35:50;99295.81;;;14.67;100.00
71770;BME280;66386;52.122;5.420;2023-10-19T09:38:23;99298.75;;;14.74;100.00
71770;BME280;66386;52.122;5.420;2023-10-19T09:40:52;99289.09;;;14.76;100.00
71770;BME280;66386;52.122;5.420;2023-10-19T09:43:34;99292.53;;;14.76;100.00
71770;BME280;66386;52.122;5.420;2023-10-19T09:46:07;99292.41;;;14.78;100.00
71770;BME280;66386;52.122;5.420;2023-10-19T09:48:43;99284.41;;;14.81;100.00
71770;BME280;66386;52.122;5.420;2023-10-19T09:51:13;99285.09;;;14.83;100.00
71770;BME280;66386;52.122;5.420;2023-10-19T09:53:46;99282.97;;;14.88;100.00
71770;BME280;66386;52.122;5.420;2023-10-19T09:56:23;99280.56;;;14.96;100.00
71770;BME280;66386;52.122;5.420;2023-10-19T09:59:06;99279.91;;;15.15;100.00
71770;BME280;66386;52.122;5.420;2023-10-19T10:02:03;99264.50;;;15.56;100.00
71770;BME280;66386;52.122;5.420;2023-10-19T10:04:31;99253.94;;;15.90;100.00
71770;BME280;66386;52.122;5.420;2023-10-19T10:06:59;99252.53;;;16.07;100.00
71770;BME280;66386;52.122;5.420;2023-10-19T10:09:26;99266.94;;;16.00;100.00
71770;BME280;66386;52.122;5.420;2023-10-19T10:11:53;99262.28;;;15.94;100.00
71770;BME280;66386;52.122;5.420;2023-10-19T10:14:22;99269.06;;;15.85;100.00
71770;BME280;66386;52.122;5.420;2023-10-19T10:17:04;99264.91;;;15.73;100.00
71770;BME280;66386;52.122;5.420;2023-10-19T10:19:31;99269.44;;;15.59;100.00
71770;BME280;66386;52.122;5.420;2023-10-19T10:22:08;99274.72;;;15.48;100.00
71770;BME280;66386;52.122;5.420;2023-10-19T10:24:42;99274.84;;;15.46;100.00
71770;BME280;66386;52.122;5.420;2023-10-19T10:27:09;99269.28;;;15.51;100.00
71770;BME280;66386;52.122;5.420;2023-10-19T10:29:36;99279.78;;;15.59;100.00
71770;BME280;66386;52.122;5.420;2023-10-19T10:32:03;99283.53;;;15.66;100.00
71770;BME280;66386;52.122;5.420;2023-10-19T10:37:10;99265.31;;;15.78;100.00
71770;BME280;66386;52.122;5.420;2023-10-19T10:39:40;99264.28;;;15.80;100.00
71770;BME280;66386;52.122;5.420;2023-10-19T10:42:09;99260.63;;;15.83;100.00
71770;BME280;66386;52.122;5.420;2023-10-19T10:44:46;99257.19;;;15.82;100.00
71770;BME280;66386;52.122;5.420;2023-10-19T10:47:20;99259.22;;;15.79;100.00
71770;BME280;66386;52.122;5.420;2023-10-19T10:49:52;99254.06;;;15.79;100.00
71770;BME280;66386;52.122;5.420;2023-10-19T10:52:27;99252.50;;;15.76;100.00
71770;BME280;66386;52.122;5.420;2023-10-19T10:55:07;99247.44;;;15.75;100.00
71770;BME280;66386;52.122;5.420;2023-10-19T10:57:33;99240.50;;;15.75;100.00
71770;BME280;66386;52.122;5.420;2023-10-19T11:00:05;99233.69;;;15.74;100.00
71770;BME280;66386;52.122;5.420;2023-10-19T11:02:35;99235.19;;;15.77;100.00
71770;BME280;66386;52.122;5.420;2023-10-19T11:05:02;99235.91;;;15.79;100.00
71770;BME280;66386;52.122;5.420;2023-10-19T11:07:29;99233.22;;;15.90;100.00
71770;BME280;66386;52.122;5.420;2023-10-19T11:09:56;99230.00;;;15.98;100.00
71770;BME280;66386;52.122;5.420;2023-10-19T11:12:23;99223.72;;;16.00;100.00
71770;BME280;66386;52.122;5.420;2023-10-19T11:14:55;99224.41;;;16.02;100.00
71770;BME280;66386;52.122;5.420;2023-10-19T11:17:22;99224.81;;;16.08;100.00
71770;BME280;66386;52.122;5.420;2023-10-19T11:19:55;99224.19;;;16.15;100.00
71770;BME280;66386;52.122;5.420;2023-10-19T11:22:26;99230.34;;;16.24;100.00
71770;BME280;66386;52.122;5.420;2023-10-19T11:24:53;99228.28;;;16.28;100.00
71770;BME280;66386;52.122;5.420;2023-10-19T11:27:27;99228.16;;;16.29;100.00
71770;BME280;66386;52.122;5.420;2023-10-19T11:29:58;99219.44;;;16.30;100.00
71770;BME280;66386;52.122;5.420;2023-10-19T11:32:25;99219.97;;;16.34;100.00
71770;BME280;66386;52.122;5.420;2023-10-19T11:34:53;99218.63;;;16.39;100.00
71770;BME280;66386;52.122;5.420;2023-10-19T11:37:21;99218.25;;;16.54;100.00
71770;BME280;66386;52.122;5.420;2023-10-19T11:39:47;99220.56;;;16.67;100.00
71770;BME280;66386;52.122;5.420;2023-10-19T11:42:17;99221.41;;;16.77;100.00
71770;BME280;66386;52.122;5.420;2023-10-19T11:44:44;99213.38;;;17.00;100.00
71770;BME280;66386;52.122;5.420;2023-10-19T11:47:12;99205.28;;;17.13;100.00
71770;BME280;66386;52.122;5.420;2023-10-19T11:49:39;99213.06;;;17.22;100.00
71770;BME280;66386;52.122;5.420;2023-10-19T11:52:06;99204.84;;;17.37;100.00
71770;BME280;66386;52.122;5.420;2023-10-19T11:54:34;99206.69;;;17.54;100.00
71770;BME280;66386;52.122;5.420;2023-10-19T11:57:03;99204.91;;;17.55;100.00
71770;BME280;66386;52.122;5.420;2023-10-19T11:59:30;99201.81;;;17.41;100.00
71770;BME280;66386;52.122;5.420;2023-10-19T12:01:56;99198.41;;;17.31;100.00
71770;BME280;66386;52.122;5.420;2023-10-19T12:04:25;99194.19;;;17.30;100.00
71770;BME280;66386;52.122;5.420;2023-10-19T12:06:52;99197.34;;;17.34;100.00
71770;BME280;66386;52.122;5.420;2023-10-19T12:09:19;99180.91;;;17.33;100.00
71770;BME280;66386;52.122;5.420;2023-10-19T12:11:50;99179.03;;;17.25;99.78
71770;BME280;66386;52.122;5.420;2023-10-19T12:14:20;99182.75;;;17.13;100.00
71770;BME280;66386;52.122;5.420;2023-10-19T12:16:47;99182.09;;;17.01;100.00
71770;BME280;66386;52.122;5.420;2023-10-19T12:19:14;99181.97;;;16.93;100.00
71770;BME280;66386;52.122;5.420;2023-10-19T12:21:42;99190.16;;;16.88;100.00
71770;BME280;66386;52.122;5.420;2023-10-19T12:24:09;99185.34;;;16.84;100.00
71770;BME280;66386;52.122;5.420;2023-10-19T12:26:35;99185.75;;;16.79;100.00
71770;BME280;66386;52.122;5.420;2023-10-19T12:29:02;99184.13;;;16.78;100.00
71770;BME280;66386;52.122;5.420;2023-10-19T12:31:33;99174.03;;;16.75;100.00
71770;BME280;66386;52.122;5.420;2023-10-19T12:34:00;99168.13;;;16.73;100.00
71770;BME280;66386;52.122;5.420;2023-10-19T12:36:27;99160.50;;;16.71;100.00
71770;BME280;66386;52.122;5.420;2023-10-19T12:38:54;99167.59;;;16.69;100.00
71770;BME280;66386;52.122;5.420;2023-10-19T12:41:21;99169.38;;;16.69;100.00
71770;BME280;66386;52.122;5.420;2023-10-19T12:43:48;99166.91;;;16.67;100.00
71770;BME280;66386;52.122;5.420;2023-10-19T12:46:19;99168.84;;;16.65;100.00
71770;BME280;66386;52.122;5.420;2023-10-19T12:48:46;99165.69;;;16.62;100.00
71770;BME280;66386;52.122;5.420;2023-10-19T12:51:16;99169.38;;;16.59;100.00
71770;BME280;66386;52.122;5.420;2023-10-19T12:53:50;99173.22;;;16.55;100.00
71770;BME280;66386;52.122;5.420;2023-10-19T12:56:18;99163.78;;;16.54;100.00
71770;BME280;66386;52.122;5.420;2023-10-19T12:58:45;99154.38;;;16.53;100.00
71770;BME280;66386;52.122;5.420;2023-10-19T13:01:12;99153.00;;;16.49;100.00
71770;BME280;66386;52.122;5.420;2023-10-19T13:03:46;99161.88;;;16.46;100.00
71770;BME280;66386;52.122;5.420;2023-10-19T13:06:13;99160.63;;;16.40;100.00
71770;BME280;66386;52.122;5.420;2023-10-19T13:08:40;99174.97;;;16.35;100.00
71770;BME280;66386;52.122;5.420;2023-10-19T13:11:08;99174.69;;;16.28;100.00
71770;BME280;66386;52.122;5.420;2023-10-19T13:13:43;99174.94;;;16.25;100.00